createdAt,value
2023-03-02T00:04:22.712Z,-0.97
2023-03-02T00:09:51.718Z,-0.95
2023-03-02T00:15:15.740Z,-0.96
2023-03-02T00:20:46.733Z,-0.99
2023-03-02T00:26:14.763Z,-0.89
2023-03-02T00:31:38.745Z,-0.79
2023-03-02T00:37:03.725Z,-0.63
2023-03-02T00:42:30.732Z,-0.54
2023-03-02T00:47:55.716Z,-0.48
2023-03-02T00:53:20.721Z,-0.50
2023-03-02T00:58:48.750Z,-0.47
2023-03-02T01:04:19.729Z,-0.56
2023-03-02T01:09:44.862Z,-0.62
2023-03-02T01:15:11.748Z,-0.68
2023-03-02T01:20:37.750Z,-0.79
2023-03-02T01:26:02.780Z,-0.86
2023-03-02T01:31:30.776Z,-0.96
2023-03-02T01:36:55.755Z,-1.06
2023-03-02T01:43:11.576Z,-1.20
2023-03-02T01:48:43.730Z,-1.30
2023-03-02T01:54:29.739Z,-1.40
2023-03-02T01:59:56.776Z,-1.50
2023-03-02T02:05:40.770Z,-1.62
2023-03-02T02:11:05.743Z,-1.75
2023-03-02T02:16:31.380Z,-1.80
2023-03-02T02:21:59.796Z,-1.83
2023-03-02T02:27:28.766Z,-1.91
2023-03-02T02:32:56.788Z,-1.99
2023-03-02T02:38:23.801Z,-1.97
2023-03-02T02:43:51.789Z,-2.03
2023-03-02T02:49:18.776Z,-2.08
2023-03-02T02:54:45.748Z,-2.13
2023-03-02T03:00:18.782Z,-2.19
2023-03-02T03:05:49.797Z,-2.28
2023-03-02T03:11:15.797Z,-2.35
2023-03-02T03:16:46.837Z,-2.46
2023-03-02T03:22:11.778Z,-2.48
2023-03-02T03:27:39.770Z,-2.55
2023-03-02T03:33:08.766Z,-2.61
2023-03-02T03:38:33.800Z,-2.67
2023-03-02T03:43:58.768Z,-2.72
2023-03-02T03:49:27.842Z,-2.80
2023-03-02T03:54:53.782Z,-2.80
2023-03-02T04:00:23.777Z,-2.84
2023-03-02T04:06:03.801Z,-2.89
2023-03-02T04:11:28.818Z,-2.95
2023-03-02T04:16:54.813Z,-2.99
2023-03-02T04:22:22.805Z,-3.03
2023-03-02T04:27:47.809Z,-3.11
2023-03-02T04:33:14.829Z,-3.16
2023-03-02T04:38:41.796Z,-3.27
2023-03-02T04:44:06.839Z,-3.31
2023-03-02T04:49:33.805Z,-3.35
2023-03-02T04:55:01.836Z,-3.38
2023-03-02T05:00:28.873Z,-3.42
2023-03-02T05:05:59.834Z,-3.48
2023-03-02T05:11:32.811Z,-3.55
2023-03-02T05:16:57.838Z,-3.52
2023-03-02T05:22:22.814Z,-3.49
2023-03-02T05:27:49.843Z,-3.46
2023-03-02T05:33:14.849Z,-3.37
2023-03-02T05:38:39.860Z,-3.32
2023-03-02T05:44:07.843Z,-3.31
2023-03-02T05:49:31.885Z,-3.32
2023-03-02T05:54:59.137Z,-3.32
2023-03-02T06:00:27.839Z,-3.31
2023-03-02T06:05:59.826Z,-3.29
2023-03-02T06:11:24.863Z,-3.25
2023-03-02T06:16:51.845Z,-3.25
2023-03-02T06:22:16.842Z,-3.27
2023-03-02T06:27:40.853Z,-3.29
2023-03-02T06:33:08.990Z,-3.32
2023-03-02T06:38:32.837Z,-3.34
2023-03-02T06:43:57.877Z,-3.33
2023-03-02T06:49:25.832Z,-3.38
2023-03-02T06:54:50.846Z,-3.38
2023-03-02T07:00:17.838Z,-3.34
2023-03-02T07:05:51.928Z,-3.31
2023-03-02T07:11:17.889Z,-3.21
2023-03-02T07:16:42.916Z,-3.11
2023-03-02T07:22:10.822Z,-2.98
2023-03-02T07:27:34.861Z,-2.86
2023-03-02T07:32:59.895Z,-2.71
2023-03-02T07:38:26.860Z,-2.61
2023-03-02T07:43:51.881Z,-2.47
2023-03-02T07:49:15.879Z,-2.32
2023-03-02T07:54:43.865Z,-2.14
2023-03-02T08:00:07.854Z,-1.97
2023-03-02T08:05:39.877Z,-1.82
2023-03-02T08:11:13.872Z,-1.66
2023-03-02T08:16:38.015Z,-1.52
2023-03-02T08:22:02.967Z,-1.39
2023-03-02T08:27:31.862Z,-1.26
2023-03-02T08:32:56.887Z,-1.15
2023-03-02T08:38:20.888Z,-0.98
2023-03-02T08:43:48.902Z,-0.82
2023-03-02T08:49:12.887Z,-0.67
2023-03-02T08:54:37.995Z,-0.54
2023-03-02T09:00:04.913Z,-0.36
2023-03-02T09:05:35.884Z,-0.18
2023-03-02T09:11:00.950Z,0.02
2023-03-02T09:16:30.907Z,0.21
2023-03-02T09:21:56.929Z,0.36
2023-03-02T09:27:20.929Z,0.53
2023-03-02T09:32:49.107Z,0.71
2023-03-02T09:38:12.994Z,0.84
2023-03-02T09:43:51.883Z,1.00
2023-03-02T09:49:32.892Z,1.13
2023-03-02T09:54:57.934Z,1.30
2023-03-02T10:00:27.928Z,1.49
2023-03-02T10:06:02.908Z,1.60
2023-03-02T10:11:36.936Z,1.68
2023-03-02T10:17:04.901Z,1.80
2023-03-02T10:22:37.909Z,1.93
2023-03-02T10:28:06.942Z,2.05
2023-03-02T10:33:31.936Z,2.17
2023-03-02T10:38:58.966Z,2.27
2023-03-02T10:44:30.965Z,2.31
2023-03-02T10:49:58.930Z,2.49
2023-03-02T10:55:26.928Z,2.62
2023-03-02T11:00:51.913Z,2.77
2023-03-02T11:06:35.182Z,2.86
2023-03-02T11:12:08.042Z,3.04
2023-03-02T11:17:45.948Z,3.14
2023-03-02T11:23:24.119Z,3.23
2023-03-02T11:29:01.952Z,3.37
2023-03-02T11:34:37.934Z,3.53
2023-03-02T11:40:17.933Z,3.62
2023-03-02T11:45:51.956Z,3.78
2023-03-02T11:51:19.949Z,3.90
2023-03-02T11:56:47.949Z,4.10
2023-03-02T12:02:16.046Z,4.31
2023-03-02T12:07:40.973Z,4.44
2023-03-02T12:13:17.942Z,4.60
2023-03-02T12:19:05.971Z,4.83
2023-03-02T12:24:42.952Z,5.01
2023-03-02T12:30:22.016Z,5.09
2023-03-02T12:35:50.002Z,5.25
2023-03-02T12:41:56.068Z,5.35
2023-03-02T12:47:34.069Z,5.56
2023-03-02T12:53:09.970Z,5.70
2023-03-02T12:58:43.971Z,5.83
2023-03-02T13:04:09.005Z,6.02
2023-03-02T13:09:40.000Z,6.11
2023-03-02T13:15:07.995Z,6.37
2023-03-02T13:20:33.017Z,6.60
2023-03-02T13:26:02.999Z,6.71
2023-03-02T13:31:36.050Z,6.79
2023-03-02T13:37:02.052Z,6.84
2023-03-02T13:42:46.013Z,6.99
2023-03-02T13:48:24.039Z,7.13
2023-03-02T13:54:00.065Z,7.21
2023-03-02T13:59:29.004Z,7.37
2023-03-02T14:04:53.132Z,7.56
2023-03-02T14:10:20.036Z,7.62
2023-03-02T14:15:47.103Z,7.86
2023-03-02T14:21:12.059Z,7.86
2023-03-02T14:26:50.089Z,8.01
2023-03-02T14:32:20.084Z,8.00
2023-03-02T14:37:45.008Z,8.17
2023-03-02T14:43:10.043Z,8.21
2023-03-02T14:48:38.021Z,8.39
2023-03-02T14:54:06.031Z,8.50
2023-03-02T14:59:33.273Z,8.71
2023-03-02T15:05:07.053Z,8.53
2023-03-02T15:10:34.043Z,8.48
2023-03-02T15:16:00.119Z,8.47
2023-03-02T15:21:30.079Z,8.52
2023-03-02T15:26:54.070Z,8.52
2023-03-02T15:32:19.138Z,8.47
2023-03-02T15:37:46.064Z,8.48
2023-03-02T15:43:11.034Z,8.25
2023-03-02T15:48:35.060Z,8.10
2023-03-02T15:54:03.082Z,7.98
2023-03-02T15:59:28.061Z,7.84
2023-03-02T16:04:59.099Z,7.65
2023-03-02T16:10:28.063Z,7.46
2023-03-02T16:15:56.059Z,7.36
2023-03-02T16:21:22.095Z,7.06
2023-03-02T16:26:51.096Z,6.68
2023-03-02T16:32:16.189Z,6.33
2023-03-02T16:37:40.169Z,6.02
2023-03-02T16:43:08.107Z,5.68
2023-03-02T16:48:32.112Z,5.39
2023-03-02T16:53:58.099Z,5.10
2023-03-02T16:59:25.098Z,4.93
2023-03-02T17:04:50.120Z,4.69
2023-03-02T17:10:15.185Z,4.49
2023-03-02T17:15:43.169Z,4.10
2023-03-02T17:21:08.258Z,3.68
2023-03-02T17:26:36.628Z,3.29
2023-03-02T17:32:05.132Z,2.99
2023-03-02T17:37:32.120Z,2.78
2023-03-02T17:42:57.889Z,2.54
2023-03-02T17:48:28.116Z,2.38
2023-03-02T17:53:52.103Z,2.17
2023-03-02T17:59:17.132Z,1.99
2023-03-02T18:04:52.137Z,1.85
2023-03-02T18:10:22.153Z,1.76
2023-03-02T18:15:47.291Z,1.70
2023-03-02T18:21:16.135Z,1.64
2023-03-02T18:26:40.188Z,1.54
2023-03-02T18:32:20.167Z,1.45
2023-03-02T18:37:47.160Z,1.33
2023-03-02T18:43:12.140Z,1.22
2023-03-02T18:48:36.154Z,1.10
2023-03-02T18:54:04.156Z,0.98
2023-03-02T18:59:28.181Z,0.89
2023-03-02T19:04:53.128Z,0.76
2023-03-02T19:10:21.594Z,0.62
2023-03-02T19:15:46.183Z,0.45
2023-03-02T19:21:11.147Z,0.39
2023-03-02T19:26:39.175Z,0.36
2023-03-02T19:32:03.380Z,0.26
2023-03-02T19:37:28.145Z,0.19
2023-03-02T19:42:55.157Z,0.18
2023-03-02T19:48:20.143Z,0.21
2023-03-02T19:53:44.167Z,0.24
2023-03-02T19:59:12.191Z,0.26
2023-03-02T20:04:36.215Z,0.22
2023-03-02T20:10:01.172Z,0.19
2023-03-02T20:15:28.164Z,0.21
2023-03-02T20:20:55.176Z,0.22
2023-03-02T20:26:20.200Z,0.21
2023-03-02T20:31:48.177Z,0.24
2023-03-02T20:37:12.213Z,0.19
2023-03-02T20:42:39.162Z,0.19
2023-03-02T20:48:06.194Z,0.17
2023-03-02T20:53:32.305Z,0.19
2023-03-02T20:58:57.197Z,0.19
2023-03-02T21:04:25.264Z,0.19
2023-03-02T21:09:49.195Z,0.19
2023-03-02T21:15:15.176Z,0.20
2023-03-02T21:20:47.194Z,0.19
2023-03-02T21:26:12.208Z,0.20
2023-03-02T21:31:36.309Z,0.22
2023-03-02T21:37:11.218Z,0.18
2023-03-02T21:42:36.234Z,0.14
2023-03-02T21:48:01.213Z,0.13
2023-03-02T21:53:29.202Z,0.15
2023-03-02T21:58:54.250Z,0.15
2023-03-02T22:04:25.210Z,0.11
2023-03-02T22:09:53.294Z,0.07
2023-03-02T22:15:17.227Z,0.10
2023-03-02T22:20:42.190Z,0.11
2023-03-02T22:26:11.221Z,0.14
2023-03-02T22:31:36.239Z,0.10
2023-03-02T22:37:00.236Z,0.03
2023-03-02T22:42:30.260Z,0.05
2023-03-02T22:47:58.248Z,0.06
2023-03-02T22:53:33.261Z,0.09
2023-03-02T22:59:04.223Z,0.03
2023-03-02T23:04:38.310Z,0.02
2023-03-02T23:10:03.255Z,0.04
2023-03-02T23:15:36.262Z,0.06
2023-03-02T23:21:02.285Z,0.02
2023-03-02T23:26:27.254Z,0.03
2023-03-02T23:31:55.311Z,0.01
2023-03-02T23:37:19.279Z,-0.05
2023-03-02T23:42:44.275Z,-0.09
2023-03-02T23:48:11.249Z,-0.08
2023-03-02T23:53:36.258Z,-0.11
2023-03-02T23:59:00.255Z,-0.15
